Time,TemperatureF,DewpointF,PressureIn,WindDirection,WindDirectionDegrees,WindSpeedMPH,WindSpeedGustMPH,Humidity,HourlyPrecipIn,Conditions,Clouds,dailyrainin,SoftwareType,DateUTC
2013-04-23 00:02:00,67.0,51.0,29.95,SSW,194,0.0,4.0,56,0.00,,,0.00,,2013-04-23 05:02:00,
2013-04-23 00:12:00,67.0,51.0,29.95,SSW,194,0.0,4.0,56,0.00,,,0.00,,2013-04-23 05:12:00,
2013-04-23 00:22:00,67.0,50.0,29.94,ESE,103,0.0,7.0,55,0.00,,,0.00,,2013-04-23 05:22:00,
2013-04-23 00:32:00,67.0,50.0,29.95,SSE,151,0.0,4.0,55,0.00,,,0.00,,2013-04-23 05:32:00,
2013-04-23 00:42:00,67.0,50.0,29.95,SSE,151,0.0,4.0,55,0.00,,,0.00,,2013-04-23 05:42:00,
2013-04-23 00:52:00,66.0,51.0,29.95,ESE,122,0.0,4.0,58,0.00,,,0.00,,2013-04-23 05:52:00,
2013-04-23 01:01:00,66.0,51.0,29.95,ESE,122,0.0,4.0,58,0.00,,,0.00,,2013-04-23 06:01:00,
2013-04-23 01:12:00,66.0,51.0,29.95,ESE,122,0.0,4.0,58,0.00,,,0.00,,2013-04-23 06:12:00,
2013-04-23 01:21:00,63.0,51.0,29.94,WSW,257,1.0,10.0,65,0.01,,,0.01,,2013-04-23 06:21:00,
2013-04-23 01:33:00,62.0,52.0,29.92,ESE,117,0.0,3.0,70,0.02,,,0.02,,2013-04-23 06:33:00,
2013-04-23 01:42:00,62.0,52.0,29.92,ESE,117,0.0,3.0,70,0.02,,,0.02,,2013-04-23 06:42:00,
2013-04-23 01:52:00,62.0,52.0,29.90,East,87,2.0,8.0,69,0.03,,,0.03,,2013-04-23 06:52:00,
2013-04-23 02:02:00,62.0,51.0,29.90,ESE,108,1.0,8.0,67,0.02,,,0.03,,2013-04-23 07:02:00,
2013-04-23 02:11:00,62.0,51.0,29.90,ESE,108,1.0,8.0,67,0.02,,,0.03,,2013-04-23 07:11:00,
2013-04-23 02:21:00,62.0,51.0,29.89,East,97,1.0,6.0,66,0.02,,,0.03,,2013-04-23 07:21:00,
2013-04-23 02:32:00,62.0,51.0,29.91,SSW,195,1.0,7.0,66,0.01,,,0.03,,2013-04-23 07:32:00,
2013-04-23 02:42:00,62.0,51.0,29.91,SSW,195,1.0,7.0,66,0.01,,,0.03,,2013-04-23 07:42:00,
2013-04-23 02:52:00,62.0,51.0,29.88,East,83,0.0,5.0,66,0.00,,,0.03,,2013-04-23 07:52:00,
2013-04-23 03:02:00,62.0,50.0,29.86,SSE,166,0.0,4.0,65,0.00,,,0.03,,2013-04-23 08:02:00,
2013-04-23 03:11:00,62.0,50.0,29.86,SSE,166,0.0,4.0,65,0.00,,,0.03,,2013-04-23 08:11:00,
2013-04-23 03:21:00,62.0,50.0,29.89,SW,218,0.0,7.0,65,0.00,,,0.03,,2013-04-23 08:21:00,
2013-04-23 03:32:00,62.0,52.0,29.89,SW,226,0.0,4.0,69,0.00,,,0.03,,2013-04-23 08:32:00,
2013-04-23 03:42:00,62.0,52.0,29.89,SW,226,0.0,4.0,69,0.00,,,0.03,,2013-04-23 08:42:00,
2013-04-23 03:52:00,60.0,52.0,29.86,ESE,115,0.0,6.0,74,0.01,,,0.04,,2013-04-23 08:52:00,
2013-04-23 04:01:00,58.0,53.0,29.86,WSW,243,0.0,1.0,82,0.06,,,0.09,,2013-04-23 09:01:00,
2013-04-23 04:11:00,58.0,53.0,29.86,WSW,243,0.0,1.0,82,0.06,,,0.09,,2013-04-23 09:11:00,
2013-04-23 04:21:00,57.0,53.0,29.86,WSW,243,0.0,0.0,87,0.06,,,0.09,,2013-04-23 09:21:00,
2013-04-23 04:33:00,57.0,53.0,29.86,WNW,290,0.0,1.0,88,0.06,,,0.09,,2013-04-23 09:33:00,
2013-04-23 04:43:00,57.0,53.0,29.86,WNW,290,0.0,1.0,88,0.06,,,0.09,,2013-04-23 09:43:00,
2013-04-23 04:52:00,57.0,54.0,29.90,NW,313,0.0,2.0,90,0.04,,,0.09,,2013-04-23 09:52:00,
2013-04-23 05:02:00,57.0,54.0,29.89,North,5,0.0,2.0,89,0.00,,,0.09,,2013-04-23 10:02:00,
2013-04-23 05:13:00,57.0,54.0,29.89,North,5,0.0,2.0,89,0.00,,,0.09,,2013-04-23 10:13:00,
2013-04-23 05:22:00,57.0,54.0,29.89,NNW,337,0.0,3.0,89,0.00,,,0.09,,2013-04-23 10:22:00,
2013-04-23 05:33:00,58.0,55.0,29.90,WNW,291,1.0,5.0,89,0.00,,,0.09,,2013-04-23 10:33:00,
2013-04-23 05:42:00,58.0,55.0,29.90,WNW,291,1.0,5.0,89,0.00,,,0.09,,2013-04-23 10:42:00,
2013-04-23 05:52:00,56.0,52.0,29.92,NNW,329,3.0,8.0,88,0.00,,,0.09,,2013-04-23 10:52:00,
2013-04-23 06:03:00,52.0,49.0,29.93,WNW,301,2.0,11.0,88,0.01,,,0.10,,2013-04-23 11:03:00,
2013-04-23 06:12:00,52.0,49.0,29.93,WNW,301,2.0,11.0,88,0.01,,,0.10,,2013-04-23 11:12:00,
2013-04-23 06:21:00,49.0,46.0,29.93,NNW,347,5.0,9.0,90,0.01,,,0.10,,2013-04-23 11:21:00,
2013-04-23 06:32:00,47.0,45.0,29.94,NW,314,3.0,12.0,91,0.01,,,0.10,,2013-04-23 11:32:00,
2013-04-23 06:42:00,47.0,45.0,29.94,NW,314,3.0,12.0,91,0.01,,,0.10,,2013-04-23 11:42:00,
2013-04-23 06:52:00,46.0,44.0,29.94,NNE,27,3.0,13.0,91,0.00,,,0.10,,2013-04-23 11:52:00,
2013-04-23 07:02:00,46.0,44.0,29.95,NNW,332,2.0,10.0,92,0.00,,,0.10,,2013-04-23 12:02:00,
2013-04-23 07:12:00,46.0,44.0,29.95,NNW,332,2.0,10.0,92,0.00,,,0.10,,2013-04-23 12:12:00,
2013-04-23 07:22:00,45.0,43.0,29.96,NW,320,3.0,12.0,92,0.00,,,0.10,,2013-04-23 12:22:00,
2013-04-23 07:32:00,45.0,43.0,29.96,North,359,2.0,10.0,92,0.00,,,0.10,,2013-04-23 12:32:00,
2013-04-23 07:42:00,45.0,43.0,29.96,North,359,2.0,10.0,92,0.00,,,0.10,,2013-04-23 12:42:00,
2013-04-23 07:51:00,45.0,43.0,29.97,North,351,2.0,9.0,92,0.00,,,0.10,,2013-04-23 12:51:00,
2013-04-23 08:01:00,45.0,43.0,29.98,North,356,3.0,11.0,92,0.00,,,0.10,,2013-04-23 13:01:00,
2013-04-23 08:11:00,45.0,43.0,29.98,North,356,3.0,11.0,92,0.00,,,0.10,,2013-04-23 13:11:00,
2013-04-23 08:21:00,45.0,43.0,29.99,WNW,294,1.0,6.0,92,0.00,,,0.10,,2013-04-23 13:21:00,
2013-04-23 08:32:00,43.0,41.0,30.00,North,3,3.0,12.0,92,0.00,,,0.10,,2013-04-23 13:32:00,
2013-04-23 08:42:00,43.0,41.0,30.00,North,3,3.0,12.0,92,0.00,,,0.10,,2013-04-23 13:42:00,
2013-04-23 08:52:00,43.0,41.0,30.02,NNW,329,1.0,7.0,92,0.00,,,0.10,,2013-04-23 13:52:00,
2013-04-23 09:02:00,42.0,40.0,30.02,North,8,5.0,15.0,92,0.00,,,0.10,,2013-04-23 14:02:00,
2013-04-23 09:11:00,42.0,40.0,30.02,North,8,5.0,15.0,92,0.00,,,0.10,,2013-04-23 14:11:00,
2013-04-23 09:22:00,42.0,40.0,30.02,NNW,330,4.0,9.0,93,0.00,,,0.10,,2013-04-23 14:22:00,
2013-04-23 09:32:00,42.0,40.0,30.03,North,7,2.0,8.0,93,0.00,,,0.10,,2013-04-23 14:32:00,
2013-04-23 09:42:00,42.0,40.0,30.03,North,7,2.0,8.0,93,0.00,,,0.10,,2013-04-23 14:42:00,
2013-04-23 09:52:00,42.0,40.0,30.03,North,1,3.0,8.0,93,0.00,,,0.10,,2013-04-23 14:52:00,
2013-04-23 10:01:00,42.0,40.0,30.03,North,1,3.0,8.0,93,0.00,,,0.10,,2013-04-23 15:01:00,
2013-04-23 10:12:00,41.0,39.0,30.04,WNW,300,4.0,15.0,93,0.00,,,0.10,,2013-04-23 15:12:00,
2013-04-23 10:21:00,41.0,39.0,30.04,North,4,2.0,10.0,94,0.00,,,0.10,,2013-04-23 15:21:00,
2013-04-23 10:32:00,40.0,38.0,30.05,North,350,4.0,15.0,93,0.00,,,0.10,,2013-04-23 15:32:00,
2013-04-23 10:42:00,40.0,38.0,30.05,North,350,4.0,15.0,93,0.00,,,0.10,,2013-04-23 15:42:00,
2013-04-23 10:53:00,40.0,38.0,30.05,North,6,3.0,8.0,93,0.00,,,0.10,,2013-04-23 15:53:00,
2013-04-23 11:03:00,40.0,38.0,30.06,NNE,26,3.0,9.0,93,0.00,,,0.10,,2013-04-23 16:03:00,
2013-04-23 11:12:00,40.0,38.0,30.06,NNE,26,3.0,9.0,93,0.00,,,0.10,,2013-04-23 16:12:00,
2013-04-23 11:23:00,40.0,38.0,30.07,NNW,329,3.0,15.0,93,0.00,,,0.10,,2013-04-23 16:23:00,
2013-04-23 11:34:00,40.0,38.0,30.08,North,359,2.0,10.0,94,0.00,,,0.10,,2013-04-23 16:34:00,
2013-04-23 11:43:00,40.0,38.0,30.08,North,359,2.0,10.0,94,0.00,,,0.10,,2013-04-23 16:43:00,
2013-04-23 11:52:00,39.0,37.0,30.08,NW,307,3.0,9.0,93,0.00,,,0.10,,2013-04-23 16:52:00,
2013-04-23 12:02:00,39.0,37.0,30.09,North,353,3.0,8.0,94,0.00,,,0.10,,2013-04-23 17:02:00,
2013-04-23 12:11:00,39.0,37.0,30.09,North,353,3.0,8.0,94,0.00,,,0.10,,2013-04-23 17:11:00,
2013-04-23 12:22:00,39.0,37.0,30.10,NNW,328,1.0,7.0,94,0.00,,,0.10,,2013-04-23 17:22:00,
2013-04-23 12:32:00,39.0,37.0,30.10,NW,319,1.0,8.0,94,0.00,,,0.10,,2013-04-23 17:32:00,
2013-04-23 12:42:00,39.0,37.0,30.10,NW,319,1.0,8.0,94,0.00,,,0.10,,2013-04-23 17:42:00,
2013-04-23 12:53:00,39.0,37.0,30.10,North,7,2.0,9.0,94,0.01,,,0.11,,2013-04-23 17:53:00,
2013-04-23 13:02:00,39.0,37.0,30.10,NNW,338,2.0,7.0,94,0.01,,,0.11,,2013-04-23 18:02:00,
2013-04-23 13:12:00,39.0,37.0,30.10,NNW,338,2.0,7.0,94,0.01,,,0.11,,2013-04-23 18:12:00,
2013-04-23 13:22:00,39.0,37.0,30.10,NNW,345,4.0,13.0,94,0.01,,,0.11,,2013-04-23 18:22:00,
2013-04-23 13:32:00,39.0,37.0,30.10,West,266,2.0,13.0,94,0.01,,,0.11,,2013-04-23 18:32:00,
2013-04-23 13:42:00,39.0,37.0,30.10,West,266,2.0,13.0,94,0.01,,,0.11,,2013-04-23 18:42:00,
2013-04-23 13:52:00,39.0,37.0,30.10,North,349,4.0,10.0,93,0.00,,,0.11,,2013-04-23 18:52:00,
2013-04-23 14:02:00,38.0,36.0,30.10,NW,317,2.0,8.0,94,0.00,,,0.11,,2013-04-23 19:02:00,
2013-04-23 14:11:00,38.0,36.0,30.10,NW,317,2.0,8.0,94,0.00,,,0.11,,2013-04-23 19:11:00,
2013-04-23 14:22:00,38.0,36.0,30.11,NNW,330,2.0,9.0,94,0.00,,,0.11,,2013-04-23 19:22:00,
2013-04-23 14:32:00,39.0,37.0,30.11,NW,305,1.0,10.0,93,0.00,,,0.11,,2013-04-23 19:32:00,
2013-04-23 14:42:00,39.0,37.0,30.11,NW,305,1.0,10.0,93,0.00,,,0.11,,2013-04-23 19:42:00,
2013-04-23 14:52:00,38.0,36.0,30.11,NW,316,2.0,10.0,93,0.00,,,0.11,,2013-04-23 19:52:00,
2013-04-23 15:01:00,38.0,36.0,30.13,NW,321,3.0,8.0,93,0.00,,,0.11,,2013-04-23 20:01:00,
2013-04-23 15:11:00,38.0,36.0,30.13,NW,321,3.0,8.0,93,0.00,,,0.11,,2013-04-23 20:11:00,
2013-04-23 15:22:00,38.0,36.0,30.13,NNE,19,2.0,9.0,93,0.00,,,0.11,,2013-04-23 20:22:00,
2013-04-23 15:32:00,39.0,37.0,30.12,NW,323,2.0,9.0,93,0.00,,,0.11,,2013-04-23 20:32:00,
2013-04-23 15:42:00,39.0,37.0,30.12,NW,323,2.0,9.0,93,0.00,,,0.11,,2013-04-23 20:42:00,
2013-04-23 15:51:00,38.0,36.0,30.13,NW,305,2.0,7.0,93,0.00,,,0.11,,2013-04-23 20:51:00,
2013-04-23 16:02:00,38.0,36.0,30.12,NW,323,4.0,15.0,93,0.00,,,0.11,,2013-04-23 21:02:00,
2013-04-23 16:12:00,38.0,36.0,30.12,NW,323,4.0,15.0,93,0.00,,,0.11,,2013-04-23 21:12:00,
2013-04-23 16:21:00,38.0,36.0,30.12,NNW,328,4.0,12.0,91,0.00,,,0.11,,2013-04-23 21:21:00,
2013-04-23 16:33:00,38.0,36.0,30.13,NW,304,3.0,11.0,92,0.00,,,0.11,,2013-04-23 21:33:00,
2013-04-23 16:43:00,38.0,36.0,30.13,NW,304,3.0,11.0,92,0.00,,,0.11,,2013-04-23 21:43:00,
2013-04-23 16:52:00,38.0,36.0,30.13,NNE,26,2.0,11.0,92,0.00,,,0.11,,2013-04-23 21:52:00,
2013-04-23 17:03:00,38.0,36.0,30.13,NNW,341,1.0,10.0,92,0.00,,,0.11,,2013-04-23 22:03:00,
2013-04-23 17:12:00,38.0,36.0,30.13,NNW,341,1.0,10.0,92,0.00,,,0.11,,2013-04-23 22:12:00,
2013-04-23 17:22:00,38.0,35.0,30.14,NW,304,3.0,13.0,90,0.00,,,0.11,,2013-04-23 22:22:00,
2013-04-23 17:33:00,38.0,35.0,30.14,NNE,18,4.0,10.0,90,0.00,,,0.11,,2013-04-23 22:33:00,
2013-04-23 17:42:00,38.0,35.0,30.14,NNE,18,4.0,10.0,90,0.00,,,0.11,,2013-04-23 22:42:00,
2013-04-23 17:52:00,38.0,35.0,30.15,NNW,340,4.0,10.0,88,0.00,,,0.11,,2013-04-23 22:52:00,
2013-04-23 18:03:00,38.0,35.0,30.15,NW,321,2.0,10.0,88,0.00,,,0.11,,2013-04-23 23:03:00,
2013-04-23 18:12:00,38.0,35.0,30.15,NW,321,2.0,10.0,88,0.00,,,0.11,,2013-04-23 23:12:00,
2013-04-23 18:22:00,37.0,34.0,30.16,WNW,303,1.0,8.0,89,0.00,,,0.11,,2013-04-23 23:22:00,
2013-04-23 18:32:00,37.0,34.0,30.16,NW,326,1.0,8.0,90,0.00,,,0.11,,2013-04-23 23:32:00,
2013-04-23 18:42:00,37.0,34.0,30.16,NW,326,1.0,8.0,90,0.00,,,0.11,,2013-04-23 23:42:00,
2013-04-23 18:52:00,37.0,34.0,30.17,North,351,0.0,5.0,90,0.00,,,0.11,,2013-04-23 23:52:00,
2013-04-23 19:01:00,37.0,35.0,30.17,NW,323,1.0,8.0,91,0.00,,,0.11,,2013-04-24 00:01:00,
2013-04-23 19:11:00,37.0,35.0,30.17,NW,323,1.0,8.0,91,0.00,,,0.11,,2013-04-24 00:11:00,
2013-04-23 19:22:00,36.0,34.0,30.17,NNW,348,1.0,7.0,92,0.00,,,0.11,,2013-04-24 00:22:00,
2013-04-23 19:32:00,36.0,34.0,30.18,NW,304,3.0,10.0,91,0.00,,,0.11,,2013-04-24 00:32:00,
2013-04-23 19:41:00,36.0,34.0,30.18,NW,304,3.0,10.0,91,0.00,,,0.11,,2013-04-24 00:41:00,
2013-04-23 19:52:00,36.0,33.0,30.19,NW,305,1.0,8.0,90,0.00,,,0.11,,2013-04-24 00:52:00,
2013-04-23 20:01:00,36.0,33.0,30.20,North,352,2.0,9.0,90,0.00,,,0.11,,2013-04-24 01:01:00,
2013-04-23 20:11:00,36.0,33.0,30.20,North,352,2.0,9.0,90,0.00,,,0.11,,2013-04-24 01:11:00,
2013-04-23 20:21:00,37.0,34.0,30.21,North,350,3.0,9.0,89,0.00,,,0.11,,2013-04-24 01:21:00,
2013-04-23 20:32:00,36.0,33.0,30.21,North,358,2.0,8.0,89,0.00,,,0.11,,2013-04-24 01:32:00,
2013-04-23 20:42:00,36.0,33.0,30.21,North,358,2.0,8.0,89,0.00,,,0.11,,2013-04-24 01:42:00,
2013-04-23 20:52:00,36.0,33.0,30.22,NW,316,1.0,6.0,90,0.00,,,0.11,,2013-04-24 01:52:00,
2013-04-23 21:02:00,36.0,33.0,30.22,North,6,2.0,7.0,90,0.00,,,0.11,,2013-04-24 02:02:00,
2013-04-23 21:17:00,36.0,33.0,30.22,North,6,2.0,7.0,90,0.00,,,0.11,,2013-04-24 02:17:00,
2013-04-23 21:28:00,36.0,33.0,30.23,NW,317,5.0,9.0,90,0.00,,,0.11,,2013-04-24 02:28:00,
2013-04-23 21:38:00,36.0,33.0,30.24,NNW,340,3.0,6.0,90,0.00,,,0.11,,2013-04-24 02:38:00,
2013-04-23 21:47:00,36.0,33.0,30.24,NNW,340,3.0,6.0,90,0.00,,,0.11,,2013-04-24 02:47:00,
2013-04-23 21:55:00,36.0,33.0,30.24,NNW,332,3.0,12.0,89,0.00,,,0.11,,2013-04-24 02:55:00,
2013-04-23 22:08:00,36.0,33.0,30.25,NNW,328,3.0,11.0,89,0.00,,,0.11,,2013-04-24 03:08:00,
2013-04-23 22:15:00,36.0,33.0,30.25,NNW,328,3.0,11.0,89,0.00,,,0.11,,2013-04-24 03:15:00,
2013-04-23 22:28:00,36.0,33.0,30.26,NNW,347,3.0,9.0,88,0.00,,,0.11,,2013-04-24 03:28:00,
2013-04-23 22:40:00,36.0,33.0,30.27,North,359,1.0,8.0,87,0.00,,,0.11,,2013-04-24 03:40:00,
2013-04-23 22:49:00,36.0,33.0,30.27,North,359,1.0,8.0,87,0.00,,,0.11,,2013-04-24 03:49:00,
2013-04-23 22:56:00,37.0,33.0,30.28,NNW,334,2.0,11.0,86,0.00,,,0.11,,2013-04-24 03:56:00,
2013-04-23 23:03:00,37.0,33.0,30.29,NNW,332,2.0,7.0,86,0.00,,,0.11,,2013-04-24 04:03:00,
2013-04-23 23:12:00,37.0,33.0,30.29,NNW,332,2.0,7.0,86,0.00,,,0.11,,2013-04-24 04:12:00,
2013-04-23 23:23:00,37.0,33.0,30.29,WNW,297,2.0,7.0,86,0.00,,,0.11,,2013-04-24 04:23:00,
2013-04-23 23:33:00,37.0,33.0,30.29,NW,307,0.0,7.0,86,0.00,,,0.11,,2013-04-24 04:33:00,
2013-04-23 23:43:00,37.0,33.0,30.29,NW,307,0.0,7.0,86,0.00,,,0.11,,2013-04-24 04:43:00,
2013-04-23 23:52:00,37.0,33.0,30.30,North,5,2.0,7.0,86,0.00,,,0.11,,2013-04-24 04:52:00,